sensor_id;sensor_type;location;lat;lon;timestamp;temperature;humidity
2729;DHT22;1372;47.956;7.830;2023-06-04T00:01:51;17.90;99.90
2729;DHT22;1372;47.956;7.830;2023-06-04T00:04:22;17.70;99.90
2729;DHT22;1372;47.956;7.830;2023-06-04T00:06:51;17.80;99.90
2729;DHT22;1372;47.956;7.830;2023-06-04T00:09:20;17.80;99.90
2729;DHT22;1372;47.956;7.830;2023-06-04T00:11:50;17.80;99.90
2729;DHT22;1372;47.956;7.830;2023-06-04T00:14:19;17.70;99.90
2729;DHT22;1372;47.956;7.830;2023-06-04T00:16:48;17.50;99.90
2729;DHT22;1372;47.956;7.830;2023-06-04T00:19:18;17.50;99.90
2729;DHT22;1372;47.956;7.830;2023-06-04T00:21:48;17.40;99.90
2729;DHT22;1372;47.956;7.830;2023-06-04T00:24:17;17.50;99.90
2729;DHT22;1372;47.956;7.830;2023-06-04T00:26:46;17.40;99.90
2729;DHT22;1372;47.956;7.830;2023-06-04T00:29:18;17.30;99.90
2729;DHT22;1372;47.956;7.830;2023-06-04T00:31:47;17.30;99.90
2729;DHT22;1372;47.956;7.830;2023-06-04T00:34:17;17.20;99.90
2729;DHT22;1372;47.956;7.830;2023-06-04T00:36:47;17.10;99.90
2729;DHT22;1372;47.956;7.830;2023-06-04T00:39:18;17.00;99.90
2729;DHT22;1372;47.956;7.830;2023-06-04T00:41:47;17.00;99.90
2729;DHT22;1372;47.956;7.830;2023-06-04T00:44:19;17.00;99.90
2729;DHT22;1372;47.956;7.830;2023-06-04T00:46:51;16.80;99.90
2729;DHT22;1372;47.956;7.830;2023-06-04T00:49:21;16.70;99.90
2729;DHT22;1372;47.956;7.830;2023-06-04T00:51:51;16.90;99.90
2729;DHT22;1372;47.956;7.830;2023-06-04T00:54:21;16.90;99.90
2729;DHT22;1372;47.956;7.830;2023-06-04T00:56:50;16.80;99.90
2729;DHT22;1372;47.956;7.830;2023-06-04T00:59:19;16.70;99.90
2729;DHT22;1372;47.956;7.830;2023-06-04T01:02:00;16.70;99.90
2729;DHT22;1372;47.956;7.830;2023-06-04T01:04:37;16.70;99.90
2729;DHT22;1372;47.956;7.830;2023-06-04T01:07:22;16.60;99.90
2729;DHT22;1372;47.956;7.830;2023-06-04T01:09:51;16.60;99.90
2729;DHT22;1372;47.956;7.830;2023-06-04T01:12:20;16.60;99.90
2729;DHT22;1372;47.956;7.830;2023-06-04T01:14:49;16.40;99.90
2729;DHT22;1372;47.956;7.830;2023-06-04T01:17:21;16.30;99.90
2729;DHT22;1372;47.956;7.830;2023-06-04T01:20:13;16.40;99.90
2729;DHT22;1372;47.956;7.830;2023-06-04T01:23:02;16.40;99.90
2729;DHT22;1372;47.956;7.830;2023-06-04T01:25:42;16.30;99.90
2729;DHT22;1372;47.956;7.830;2023-06-04T01:28:13;16.30;99.90
2729;DHT22;1372;47.956;7.830;2023-06-04T01:30:45;16.40;99.90
2729;DHT22;1372;47.956;7.830;2023-06-04T01:33:16;16.40;99.90
2729;DHT22;1372;47.956;7.830;2023-06-04T01:35:46;16.30;99.90
2729;DHT22;1372;47.956;7.830;2023-06-04T01:38:17;16.30;99.90
2729;DHT22;1372;47.956;7.830;2023-06-04T01:40:46;16.10;99.90
2729;DHT22;1372;47.956;7.830;2023-06-04T01:43:15;16.20;99.90
2729;DHT22;1372;47.956;7.830;2023-06-04T01:45:44;16.10;99.90
2729;DHT22;1372;47.956;7.830;2023-06-04T01:48:16;16.10;99.90
2729;DHT22;1372;47.956;7.830;2023-06-04T01:50:46;16.10;99.90
2729;DHT22;1372;47.956;7.830;2023-06-04T01:53:16;16.00;99.90
2729;DHT22;1372;47.956;7.830;2023-06-04T01:55:47;16.00;99.90
2729;DHT22;1372;47.956;7.830;2023-06-04T01:58:19;16.00;99.90
2729;DHT22;1372;47.956;7.830;2023-06-04T02:00:54;15.90;99.90
2729;DHT22;1372;47.956;7.830;2023-06-04T02:03:23;15.80;99.90
2729;DHT22;1372;47.956;7.830;2023-06-04T02:05:55;15.80;99.90
2729;DHT22;1372;47.956;7.830;2023-06-04T02:08:25;15.80;99.90
2729;DHT22;1372;47.956;7.830;2023-06-04T02:10:54;15.70;99.90
2729;DHT22;1372;47.956;7.830;2023-06-04T02:13:23;15.50;99.90
2729;DHT22;1372;47.956;7.830;2023-06-04T02:15:54;15.40;99.90
2729;DHT22;1372;47.956;7.830;2023-06-04T02:18:23;15.50;99.90
2729;DHT22;1372;47.956;7.830;2023-06-04T02:20:53;15.40;99.90
2729;DHT22;1372;47.956;7.830;2023-06-04T02:23:22;15.30;99.90
2729;DHT22;1372;47.956;7.830;2023-06-04T02:25:53;15.40;99.90
2729;DHT22;1372;47.956;7.830;2023-06-04T02:28:22;15.40;99.90
2729;DHT22;1372;47.956;7.830;2023-06-04T02:30:52;15.20;99.90
2729;DHT22;1372;47.956;7.830;2023-06-04T02:33:21;15.30;99.90
2729;DHT22;1372;47.956;7.830;2023-06-04T02:35:50;15.20;99.90
2729;DHT22;1372;47.956;7.830;2023-06-04T02:38:22;15.30;99.90
2729;DHT22;1372;47.956;7.830;2023-06-04T02:40:52;15.20;99.90
2729;DHT22;1372;47.956;7.830;2023-06-04T02:43:23;15.20;99.90
2729;DHT22;1372;47.956;7.830;2023-06-04T02:45:52;15.20;99.90
2729;DHT22;1372;47.956;7.830;2023-06-04T02:48:21;15.00;99.90
2729;DHT22;1372;47.956;7.830;2023-06-04T02:50:50;15.00;99.90
2729;DHT22;1372;47.956;7.830;2023-06-04T02:53:19;14.90;99.90
2729;DHT22;1372;47.956;7.830;2023-06-04T02:55:49;14.90;99.90
2729;DHT22;1372;47.956;7.830;2023-06-04T02:58:20;14.90;99.90
2729;DHT22;1372;47.956;7.830;2023-06-04T03:00:56;14.80;99.90
2729;DHT22;1372;47.956;7.830;2023-06-04T03:03:24;14.80;99.90
2729;DHT22;1372;47.956;7.830;2023-06-04T03:05:55;14.70;99.90
2729;DHT22;1372;47.956;7.830;2023-06-04T03:08:23;14.70;99.90
2729;DHT22;1372;47.956;7.830;2023-06-04T03:10:52;14.70;99.90
2729;DHT22;1372;47.956;7.830;2023-06-04T03:13:23;14.60;99.90
2729;DHT22;1372;47.956;7.830;2023-06-04T03:15:52;14.70;99.90
2729;DHT22;1372;47.956;7.830;2023-06-04T03:18:25;14.70;99.90
2729;DHT22;1372;47.956;7.830;2023-06-04T03:20:54;14.70;99.90
2729;DHT22;1372;47.956;7.830;2023-06-04T03:23:23;14.70;99.90
2729;DHT22;1372;47.956;7.830;2023-06-04T03:25:52;14.50;99.90
2729;DHT22;1372;47.956;7.830;2023-06-04T03:28:23;14.40;99.90
2729;DHT22;1372;47.956;7.830;2023-06-04T03:30:51;14.30;99.90
2729;DHT22;1372;47.956;7.830;2023-06-04T03:33:20;14.30;99.90
2729;DHT22;1372;47.956;7.830;2023-06-04T03:35:50;14.30;99.90
2729;DHT22;1372;47.956;7.830;2023-06-04T03:38:22;14.30;99.90
2729;DHT22;1372;47.956;7.830;2023-06-04T03:40:54;14.20;99.90
2729;DHT22;1372;47.956;7.830;2023-06-04T03:43:26;14.20;99.90
2729;DHT22;1372;47.956;7.830;2023-06-04T03:45:55;14.20;99.90
2729;DHT22;1372;47.956;7.830;2023-06-04T03:48:24;14.10;99.90
2729;DHT22;1372;47.956;7.830;2023-06-04T03:50:53;14.20;99.90
2729;DHT22;1372;47.956;7.830;2023-06-04T03:53:22;14.10;99.90
2729;DHT22;1372;47.956;7.830;2023-06-04T03:55:51;14.10;99.90
2729;DHT22;1372;47.956;7.830;2023-06-04T03:58:20;14.10;99.90
2729;DHT22;1372;47.956;7.830;2023-06-04T04:00:51;14.20;99.90
2729;DHT22;1372;47.956;7.830;2023-06-04T04:03:19;14.20;99.90
2729;DHT22;1372;47.956;7.830;2023-06-04T04:05:49;14.20;99.90
2729;DHT22;1372;47.956;7.830;2023-06-04T04:08:17;14.20;99.90
2729;DHT22;1372;47.956;7.830;2023-06-04T04:10:49;14.20;99.90
2729;DHT22;1372;47.956;7.830;2023-06-04T04:13:18;14.30;99.90
2729;DHT22;1372;47.956;7.830;2023-06-04T04:15:47;14.20;99.90
2729;DHT22;1372;47.956;7.830;2023-06-04T04:18:23;14.20;99.90
2729;DHT22;1372;47.956;7.830;2023-06-04T04:20:52;14.10;99.90
2729;DHT22;1372;47.956;7.830;2023-06-04T04:23:23;14.10;99.90
2729;DHT22;1372;47.956;7.830;2023-06-04T04:25:55;14.20;99.90
2729;DHT22;1372;47.956;7.830;2023-06-04T04:28:25;14.20;99.90
2729;DHT22;1372;47.956;7.830;2023-06-04T04:30:58;14.20;99.90
2729;DHT22;1372;47.956;7.830;2023-06-04T04:33:31;14.20;99.90
2729;DHT22;1372;47.956;7.830;2023-06-04T04:36:04;14.30;99.90
2729;DHT22;1372;47.956;7.830;2023-06-04T04:38:39;14.20;99.90
2729;DHT22;1372;47.956;7.830;2023-06-04T04:41:08;14.20;99.90
2729;DHT22;1372;47.956;7.830;2023-06-04T04:43:39;14.20;99.90
2729;DHT22;1372;47.956;7.830;2023-06-04T04:46:10;14.20;99.90
2729;DHT22;1372;47.956;7.830;2023-06-04T04:48:40;14.10;99.90
2729;DHT22;1372;47.956;7.830;2023-06-04T04:51:09;14.20;99.90
2729;DHT22;1372;47.956;7.830;2023-06-04T04:53:38;14.30;99.90
2729;DHT22;1372;47.956;7.830;2023-06-04T04:56:09;14.40;99.90
2729;DHT22;1372;47.956;7.830;2023-06-04T04:58:41;14.40;99.90
2729;DHT22;1372;47.956;7.830;2023-06-04T05:01:12;14.40;99.90
2729;DHT22;1372;47.956;7.830;2023-06-04T05:03:42;14.50;99.90
2729;DHT22;1372;47.956;7.830;2023-06-04T05:06:11;14.70;99.90
2729;DHT22;1372;47.956;7.830;2023-06-04T05:08:40;14.80;99.90
2729;DHT22;1372;47.956;7.830;2023-06-04T05:11:11;14.90;99.90
2729;DHT22;1372;47.956;7.830;2023-06-04T05:13:40;15.00;99.90
2729;DHT22;1372;47.956;7.830;2023-06-04T05:16:09;15.10;99.90
2729;DHT22;1372;47.956;7.830;2023-06-04T05:18:38;15.20;99.90
2729;DHT22;1372;47.956;7.830;2023-06-04T05:21:10;15.20;99.90
2729;DHT22;1372;47.956;7.830;2023-06-04T05:23:40;15.30;99.90
2729;DHT22;1372;47.956;7.830;2023-06-04T05:26:09;15.40;99.90
2729;DHT22;1372;47.956;7.830;2023-06-04T05:28:38;15.30;99.90
2729;DHT22;1372;47.956;7.830;2023-06-04T05:31:10;15.40;99.90
2729;DHT22;1372;47.956;7.830;2023-06-04T05:33:42;15.40;99.90
2729;DHT22;1372;47.956;7.830;2023-06-04T05:36:15;15.40;99.90
2729;DHT22;1372;47.956;7.830;2023-06-04T05:38:44;15.40;99.90
2729;DHT22;1372;47.956;7.830;2023-06-04T05:41:13;15.40;99.90
2729;DHT22;1372;47.956;7.830;2023-06-04T05:43:42;15.50;99.90
2729;DHT22;1372;47.956;7.830;2023-06-04T05:46:11;15.60;99.90
2729;DHT22;1372;47.956;7.830;2023-06-04T05:48:40;15.60;99.90
2729;DHT22;1372;47.956;7.830;2023-06-04T05:51:09;15.60;99.90
2729;DHT22;1372;47.956;7.830;2023-06-04T05:53:40;15.80;99.90
2729;DHT22;1372;47.956;7.830;2023-06-04T05:56:09;15.90;99.90
2729;DHT22;1372;47.956;7.830;2023-06-04T05:58:38;15.90;99.90
2729;DHT22;1372;47.956;7.830;2023-06-04T06:01:07;16.00;99.90
2729;DHT22;1372;47.956;7.830;2023-06-04T06:03:36;16.00;99.90
2729;DHT22;1372;47.956;7.830;2023-06-04T06:06:06;16.10;99.90
2729;DHT22;1372;47.956;7.830;2023-06-04T06:08:37;16.00;99.90
2729;DHT22;1372;47.956;7.830;2023-06-04T06:11:08;16.00;99.90
2729;DHT22;1372;47.956;7.830;2023-06-04T06:13:40;16.00;99.90
2729;DHT22;1372;47.956;7.830;2023-06-04T06:16:09;16.00;99.90
2729;DHT22;1372;47.956;7.830;2023-06-04T06:18:40;16.10;99.90
2729;DHT22;1372;47.956;7.830;2023-06-04T06:21:09;16.20;99.90
2729;DHT22;1372;47.956;7.830;2023-06-04T06:23:38;16.20;99.90
2729;DHT22;1372;47.956;7.830;2023-06-04T06:26:08;16.20;99.90
2729;DHT22;1372;47.956;7.830;2023-06-04T06:28:38;16.20;99.90
2729;DHT22;1372;47.956;7.830;2023-06-04T06:31:07;16.30;99.90
2729;DHT22;1372;47.956;7.830;2023-06-04T06:33:36;16.40;99.90
2729;DHT22;1372;47.956;7.830;2023-06-04T06:36:10;16.30;99.90
2729;DHT22;1372;47.956;7.830;2023-06-04T06:38:40;16.30;99.90
2729;DHT22;1372;47.956;7.830;2023-06-04T06:41:10;16.40;99.90
2729;DHT22;1372;47.956;7.830;2023-06-04T06:43:43;16.50;99.90
2729;DHT22;1372;47.956;7.830;2023-06-04T06:46:12;16.60;99.90
2729;DHT22;1372;47.956;7.830;2023-06-04T06:48:41;16.70;99.90
2729;DHT22;1372;47.956;7.830;2023-06-04T06:51:12;16.70;99.90
2729;DHT22;1372;47.956;7.830;2023-06-04T06:53:42;16.80;99.90
2729;DHT22;1372;47.956;7.830;2023-06-04T06:56:15;16.80;99.90
2729;DHT22;1372;47.956;7.830;2023-06-04T06:58:45;16.90;99.90
2729;DHT22;1372;47.956;7.830;2023-06-04T07:01:14;16.90;99.90
2729;DHT22;1372;47.956;7.830;2023-06-04T07:03:44;17.10;99.90
2729;DHT22;1372;47.956;7.830;2023-06-04T07:06:16;17.00;99.90
2729;DHT22;1372;47.956;7.830;2023-06-04T07:08:45;17.20;99.90
2729;DHT22;1372;47.956;7.830;2023-06-04T07:11:17;17.30;99.90
2729;DHT22;1372;47.956;7.830;2023-06-04T07:13:48;17.40;99.90
2729;DHT22;1372;47.956;7.830;2023-06-04T07:16:17;17.40;99.90
2729;DHT22;1372;47.956;7.830;2023-06-04T07:18:48;17.60;99.90
2729;DHT22;1372;47.956;7.830;2023-06-04T07:21:16;17.70;99.90
2729;DHT22;1372;47.956;7.830;2023-06-04T07:23:47;17.80;99.90
2729;DHT22;1372;47.956;7.830;2023-06-04T07:26:19;17.80;99.90
2729;DHT22;1372;47.956;7.830;2023-06-04T07:28:52;17.90;99.90
2729;DHT22;1372;47.956;7.830;2023-06-04T07:31:22;17.90;99.90
2729;DHT22;1372;47.956;7.830;2023-06-04T07:33:50;18.10;99.90
2729;DHT22;1372;47.956;7.830;2023-06-04T07:36:19;18.30;99.90
2729;DHT22;1372;47.956;7.830;2023-06-04T07:38:50;18.30;99.90
2729;DHT22;1372;47.956;7.830;2023-06-04T07:41:20;18.40;99.90
2729;DHT22;1372;47.956;7.830;2023-06-04T07:43:49;18.40;99.90
2729;DHT22;1372;47.956;7.830;2023-06-04T07:46:18;18.50;99.90
2729;DHT22;1372;47.956;7.830;2023-06-04T07:48:48;18.60;99.90
2729;DHT22;1372;47.956;7.830;2023-06-04T07:51:17;18.60;99.90
2729;DHT22;1372;47.956;7.830;2023-06-04T07:53:46;18.70;99.90
2729;DHT22;1372;47.956;7.830;2023-06-04T07:56:15;18.60;99.90
2729;DHT22;1372;47.956;7.830;2023-06-04T07:58:45;18.50;99.90
2729;DHT22;1372;47.956;7.830;2023-06-04T08:01:15;18.50;99.90
2729;DHT22;1372;47.956;7.830;2023-06-04T08:03:44;18.60;99.90
2729;DHT22;1372;47.956;7.830;2023-06-04T08:06:14;18.70;99.90
2729;DHT22;1372;47.956;7.830;2023-06-04T08:08:43;18.70;99.90
2729;DHT22;1372;47.956;7.830;2023-06-04T08:11:14;18.70;99.90
2729;DHT22;1372;47.956;7.830;2023-06-04T08:13:46;18.80;99.90
2729;DHT22;1372;47.956;7.830;2023-06-04T08:16:15;18.80;99.90
2729;DHT22;1372;47.956;7.830;2023-06-04T08:18:44;18.80;99.90
2729;DHT22;1372;47.956;7.830;2023-06-04T08:21:14;18.80;99.90
2729;DHT22;1372;47.956;7.830;2023-06-04T08:23:53;18.90;99.90
2729;DHT22;1372;47.956;7.830;2023-06-04T08:26:22;18.90;99.90
2729;DHT22;1372;47.956;7.830;2023-06-04T08:28:54;18.90;99.90
2729;DHT22;1372;47.956;7.830;2023-06-04T08:31:23;18.90;99.90
2729;DHT22;1372;47.956;7.830;2023-06-04T08:33:52;18.80;99.90
2729;DHT22;1372;47.956;7.830;2023-06-04T08:36:21;18.80;99.90
2729;DHT22;1372;47.956;7.830;2023-06-04T08:38:50;18.90;99.90
2729;DHT22;1372;47.956;7.830;2023-06-04T08:41:28;18.80;99.90
2729;DHT22;1372;47.956;7.830;2023-06-04T08:43:59;18.80;99.90
2729;DHT22;1372;47.956;7.830;2023-06-04T08:46:31;18.70;99.90
2729;DHT22;1372;47.956;7.830;2023-06-04T08:49:02;18.80;99.90
2729;DHT22;1372;47.956;7.830;2023-06-04T08:51:35;18.70;99.90
2729;DHT22;1372;47.956;7.830;2023-06-04T08:54:06;18.70;99.90
2729;DHT22;1372;47.956;7.830;2023-06-04T08:56:35;18.70;99.90
2729;DHT22;1372;47.956;7.830;2023-06-04T08:59:07;18.70;99.90
2729;DHT22;1372;47.956;7.830;2023-06-04T09:01:38;18.70;99.90
2729;DHT22;1372;47.956;7.830;2023-06-04T09:04:10;18.80;99.90
2729;DHT22;1372;47.956;7.830;2023-06-04T09:06:42;18.80;99.90
2729;DHT22;1372;47.956;7.830;2023-06-04T09:09:12;18.80;99.90
2729;DHT22;1372;47.956;7.830;2023-06-04T09:11:46;18.80;99.90
2729;DHT22;1372;47.956;7.830;2023-06-04T09:14:20;18.80;99.90
2729;DHT22;1372;47.956;7.830;2023-06-04T09:16:50;18.70;99.90
2729;DHT22;1372;47.956;7.830;2023-06-04T09:19:21;18.80;99.90
2729;DHT22;1372;47.956;7.830;2023-06-04T09:21:52;19.00;99.90
2729;DHT22;1372;47.956;7.830;2023-06-04T09:24:37;19.10;99.90
2729;DHT22;1372;47.956;7.830;2023-06-04T09:27:11;19.30;99.90
2729;DHT22;1372;47.956;7.830;2023-06-04T09:29:48;19.30;99.90
2729;DHT22;1372;47.956;7.830;2023-06-04T09:32:22;19.30;99.90
2729;DHT22;1372;47.956;7.830;2023-06-04T09:34:51;19.30;99.90
2729;DHT22;1372;47.956;7.830;2023-06-04T09:37:20;19.50;99.90
2729;DHT22;1372;47.956;7.830;2023-06-04T09:39:53;19.50;99.90
2729;DHT22;1372;47.956;7.830;2023-06-04T09:42:23;19.70;99.90
2729;DHT22;1372;47.956;7.830;2023-06-04T09:44:54;19.70;99.90
2729;DHT22;1372;47.956;7.830;2023-06-04T09:47:23;19.90;99.90
2729;DHT22;1372;47.956;7.830;2023-06-04T09:49:52;19.90;99.90
2729;DHT22;1372;47.956;7.830;2023-06-04T09:52:32;20.20;99.90
2729;DHT22;1372;47.956;7.830;2023-06-04T09:55:02;20.20;99.90
2729;DHT22;1372;47.956;7.830;2023-06-04T09:57:32;20.10;99.90
2729;DHT22;1372;47.956;7.830;2023-06-04T10:00:06;20.20;99.90
2729;DHT22;1372;47.956;7.830;2023-06-04T10:02:39;20.40;99.90
2729;DHT22;1372;47.956;7.830;2023-06-04T10:05:09;20.40;99.90
2729;DHT22;1372;47.956;7.830;2023-06-04T10:07:42;20.40;99.90
2729;DHT22;1372;47.956;7.830;2023-06-04T10:10:15;20.50;99.90
2729;DHT22;1372;47.956;7.830;2023-06-04T10:12:50;20.60;99.90
2729;DHT22;1372;47.956;7.830;2023-06-04T10:15:22;20.70;99.90
2729;DHT22;1372;47.956;7.830;2023-06-04T10:17:52;20.80;99.90
2729;DHT22;1372;47.956;7.830;2023-06-04T10:20:23;20.80;99.90
2729;DHT22;1372;47.956;7.830;2023-06-04T10:22:55;20.90;99.90
2729;DHT22;1372;47.956;7.830;2023-06-04T10:25:26;20.90;99.90
2729;DHT22;1372;47.956;7.830;2023-06-04T10:27:55;20.70;99.90
2729;DHT22;1372;47.956;7.830;2023-06-04T10:30:29;20.70;99.90
2729;DHT22;1372;47.956;7.830;2023-06-04T10:32:58;20.80;99.90
2729;DHT22;1372;47.956;7.830;2023-06-04T10:35:30;20.90;99.90
2729;DHT22;1372;47.956;7.830;2023-06-04T10:38:07;20.90;99.90
2729;DHT22;1372;47.956;7.830;2023-06-04T10:40:36;21.00;99.90
2729;DHT22;1372;47.956;7.830;2023-06-04T10:43:06;21.00;99.90
2729;DHT22;1372;47.956;7.830;2023-06-04T10:45:38;21.00;99.90
2729;DHT22;1372;47.956;7.830;2023-06-04T10:48:08;21.10;99.90
2729;DHT22;1372;47.956;7.830;2023-06-04T10:50:48;21.00;99.90
2729;DHT22;1372;47.956;7.830;2023-06-04T10:53:19;21.00;99.90
2729;DHT22;1372;47.956;7.830;2023-06-04T10:55:51;21.10;99.90
2729;DHT22;1372;47.956;7.830;2023-06-04T10:58:20;21.10;99.90
2729;DHT22;1372;47.956;7.830;2023-06-04T11:00:50;21.00;99.90
2729;DHT22;1372;47.956;7.830;2023-06-04T11:03:21;21.10;99.90
2729;DHT22;1372;47.956;7.830;2023-06-04T11:05:50;21.00;99.90
2729;DHT22;1372;47.956;7.830;2023-06-04T11:08:27;21.10;99.90
2729;DHT22;1372;47.956;7.830;2023-06-04T11:10:57;21.10;99.90
2729;DHT22;1372;47.956;7.830;2023-06-04T11:13:28;21.10;99.90
2729;DHT22;1372;47.956;7.830;2023-06-04T11:15:59;21.20;99.90
2729;DHT22;1372;47.956;7.830;2023-06-04T11:18:28;21.30;99.90
2729;DHT22;1372;47.956;7.830;2023-06-04T11:21:00;21.40;99.90
2729;DHT22;1372;47.956;7.830;2023-06-04T11:23:29;21.50;99.90
2729;DHT22;1372;47.956;7.830;2023-06-04T11:25:59;21.60;99.90
2729;DHT22;1372;47.956;7.830;2023-06-04T11:28:28;21.70;99.90
2729;DHT22;1372;47.956;7.830;2023-06-04T11:30:59;21.70;99.90
2729;DHT22;1372;47.956;7.830;2023-06-04T11:33:41;21.80;99.90
2729;DHT22;1372;47.956;7.830;2023-06-04T11:36:22;21.90;99.90
2729;DHT22;1372;47.956;7.830;2023-06-04T11:38:55;22.10;99.90
2729;DHT22;1372;47.956;7.830;2023-06-04T11:41:27;22.20;99.90
2729;DHT22;1372;47.956;7.830;2023-06-04T11:44:01;22.30;99.90
2729;DHT22;1372;47.956;7.830;2023-06-04T11:46:35;22.30;99.90
2729;DHT22;1372;47.956;7.830;2023-06-04T11:49:07;22.30;99.90
2729;DHT22;1372;47.956;7.830;2023-06-04T11:51:37;22.50;99.90
2729;DHT22;1372;47.956;7.830;2023-06-04T11:54:08;22.60;99.90
2729;DHT22;1372;47.956;7.830;2023-06-04T11:56:40;22.70;99.90
2729;DHT22;1372;47.956;7.830;2023-06-04T11:59:12;22.80;99.90
2729;DHT22;1372;47.956;7.830;2023-06-04T12:01:45;22.80;99.90
2729;DHT22;1372;47.956;7.830;2023-06-04T12:04:15;23.00;99.90
2729;DHT22;1372;47.956;7.830;2023-06-04T12:06:54;23.00;99.90
2729;DHT22;1372;47.956;7.830;2023-06-04T12:09:24;23.10;99.90
2729;DHT22;1372;47.956;7.830;2023-06-04T12:12:00;23.10;99.90
2729;DHT22;1372;47.956;7.830;2023-06-04T12:14:30;23.10;99.90
2729;DHT22;1372;47.956;7.830;2023-06-04T12:17:08;23.20;99.90
2729;DHT22;1372;47.956;7.830;2023-06-04T12:19:46;23.30;99.90
2729;DHT22;1372;47.956;7.830;2023-06-04T12:22:16;23.20;99.90
2729;DHT22;1372;47.956;7.830;2023-06-04T12:24:47;23.40;99.90
2729;DHT22;1372;47.956;7.830;2023-06-04T12:27:21;23.40;99.90
2729;DHT22;1372;47.956;7.830;2023-06-04T12:29:57;23.40;99.90
2729;DHT22;1372;47.956;7.830;2023-06-04T12:32:28;23.50;99.90
2729;DHT22;1372;47.956;7.830;2023-06-04T12:34:57;23.60;99.90
2729;DHT22;1372;47.956;7.830;2023-06-04T12:37:35;23.60;99.90
2729;DHT22;1372;47.956;7.830;2023-06-04T12:40:05;23.70;99.90
2729;DHT22;1372;47.956;7.830;2023-06-04T12:42:34;23.80;99.90
2729;DHT22;1372;47.956;7.830;2023-06-04T12:45:04;24.00;99.90
2729;DHT22;1372;47.956;7.830;2023-06-04T12:47:39;24.10;99.90
2729;DHT22;1372;47.956;7.830;2023-06-04T12:50:11;24.10;99.90
2729;DHT22;1372;47.956;7.830;2023-06-04T12:52:40;24.20;99.90
2729;DHT22;1372;47.956;7.830;2023-06-04T12:55:09;24.20;99.90
2729;DHT22;1372;47.956;7.830;2023-06-04T12:57:41;24.20;99.90
2729;DHT22;1372;47.956;7.830;2023-06-04T13:00:11;24.30;99.90
2729;DHT22;1372;47.956;7.830;2023-06-04T13:02:47;24.40;99.90
2729;DHT22;1372;47.956;7.830;2023-06-04T13:05:16;24.50;99.90
2729;DHT22;1372;47.956;7.830;2023-06-04T13:07:45;24.40;99.90
2729;DHT22;1372;47.956;7.830;2023-06-04T13:10:16;24.50;99.90
2729;DHT22;1372;47.956;7.830;2023-06-04T13:12:45;24.60;99.90
2729;DHT22;1372;47.956;7.830;2023-06-04T13:15:14;24.60;99.90
2729;DHT22;1372;47.956;7.830;2023-06-04T13:17:43;24.60;99.90
2729;DHT22;1372;47.956;7.830;2023-06-04T13:20:14;24.70;99.90
2729;DHT22;1372;47.956;7.830;2023-06-04T13:22:43;24.80;99.90
2729;DHT22;1372;47.956;7.830;2023-06-04T13:25:12;24.90;99.90
2729;DHT22;1372;47.956;7.830;2023-06-04T13:27:41;25.00;99.90
2729;DHT22;1372;47.956;7.830;2023-06-04T13:30:10;24.80;99.90
2729;DHT22;1372;47.956;7.830;2023-06-04T13:32:40;24.80;99.90
2729;DHT22;1372;47.956;7.830;2023-06-04T13:35:09;24.70;99.90
2729;DHT22;1372;47.956;7.830;2023-06-04T13:37:40;24.90;99.90
2729;DHT22;1372;47.956;7.830;2023-06-04T13:40:09;25.00;99.90
2729;DHT22;1372;47.956;7.830;2023-06-04T13:42:41;25.00;99.90
2729;DHT22;1372;47.956;7.830;2023-06-04T13:45:11;25.00;99.90
2729;DHT22;1372;47.956;7.830;2023-06-04T13:47:40;25.10;99.90
2729;DHT22;1372;47.956;7.830;2023-06-04T13:50:10;25.10;99.90
2729;DHT22;1372;47.956;7.830;2023-06-04T13:52:43;25.00;99.90
2729;DHT22;1372;47.956;7.830;2023-06-04T13:55:13;25.10;99.90
2729;DHT22;1372;47.956;7.830;2023-06-04T13:57:42;25.10;99.90
2729;DHT22;1372;47.956;7.830;2023-06-04T14:00:14;25.20;99.90
2729;DHT22;1372;47.956;7.830;2023-06-04T14:02:43;25.30;99.90
2729;DHT22;1372;47.956;7.830;2023-06-04T14:05:12;25.20;99.90
2729;DHT22;1372;47.956;7.830;2023-06-04T14:07:43;25.20;99.90
2729;DHT22;1372;47.956;7.830;2023-06-04T14:10:12;25.20;99.90
2729;DHT22;1372;47.956;7.830;2023-06-04T14:12:41;25.30;99.90
2729;DHT22;1372;47.956;7.830;2023-06-04T14:15:14;25.40;99.90
2729;DHT22;1372;47.956;7.830;2023-06-04T14:17:43;25.40;99.90
2729;DHT22;1372;47.956;7.830;2023-06-04T14:20:11;25.60;99.90
2729;DHT22;1372;47.956;7.830;2023-06-04T14:22:44;25.60;99.90
2729;DHT22;1372;47.956;7.830;2023-06-04T14:25:13;25.60;99.90
2729;DHT22;1372;47.956;7.830;2023-06-04T14:27:42;25.60;99.90
2729;DHT22;1372;47.956;7.830;2023-06-04T14:30:11;25.50;99.90
2729;DHT22;1372;47.956;7.830;2023-06-04T14:32:41;25.40;99.90
2729;DHT22;1372;47.956;7.830;2023-06-04T14:35:09;25.40;99.90
2729;DHT22;1372;47.956;7.830;2023-06-04T14:37:40;25.50;99.90
2729;DHT22;1372;47.956;7.830;2023-06-04T14:40:10;25.70;99.90
2729;DHT22;1372;47.956;7.830;2023-06-04T14:42:41;25.80;99.90
2729;DHT22;1372;47.956;7.830;2023-06-04T14:45:10;26.00;99.90
2729;DHT22;1372;47.956;7.830;2023-06-04T14:47:39;26.10;99.90
2729;DHT22;1372;47.956;7.830;2023-06-04T14:50:11;26.20;99.90
2729;DHT22;1372;47.956;7.830;2023-06-04T14:52:40;26.50;99.90
2729;DHT22;1372;47.956;7.830;2023-06-04T14:55:13;26.60;99.90
2729;DHT22;1372;47.956;7.830;2023-06-04T14:57:42;26.60;99.90
2729;DHT22;1372;47.956;7.830;2023-06-04T15:00:12;26.60;99.90
2729;DHT22;1372;47.956;7.830;2023-06-04T15:02:41;26.80;99.90
2729;DHT22;1372;47.956;7.830;2023-06-04T15:05:13;26.90;99.90
2729;DHT22;1372;47.956;7.830;2023-06-04T15:07:42;27.00;99.90
2729;DHT22;1372;47.956;7.830;2023-06-04T15:10:11;27.00;99.90
2729;DHT22;1372;47.956;7.830;2023-06-04T15:12:41;27.00;99.90
2729;DHT22;1372;47.956;7.830;2023-06-04T15:15:10;26.90;99.90
2729;DHT22;1372;47.956;7.830;2023-06-04T15:17:40;27.00;99.90
2729;DHT22;1372;47.956;7.830;2023-06-04T15:20:13;26.80;99.90
2729;DHT22;1372;47.956;7.830;2023-06-04T15:22:45;26.90;99.90
2729;DHT22;1372;47.956;7.830;2023-06-04T15:25:16;26.60;99.90
2729;DHT22;1372;47.956;7.830;2023-06-04T15:27:48;26.30;99.90
2729;DHT22;1372;47.956;7.830;2023-06-04T15:30:17;26.20;99.90
2729;DHT22;1372;47.956;7.830;2023-06-04T15:32:48;26.30;99.90
2729;DHT22;1372;47.956;7.830;2023-06-04T15:35:17;26.50;99.90
2729;DHT22;1372;47.956;7.830;2023-06-04T15:37:46;26.50;99.90
2729;DHT22;1372;47.956;7.830;2023-06-04T15:40:16;26.60;99.90
2729;DHT22;1372;47.956;7.830;2023-06-04T15:42:45;26.70;99.90
2729;DHT22;1372;47.956;7.830;2023-06-04T15:45:14;26.60;99.90
2729;DHT22;1372;47.956;7.830;2023-06-04T15:47:43;26.70;99.90
2729;DHT22;1372;47.956;7.830;2023-06-04T15:50:15;26.70;99.90
2729;DHT22;1372;47.956;7.830;2023-06-04T15:52:44;26.70;99.90
2729;DHT22;1372;47.956;7.830;2023-06-04T15:55:17;26.80;99.90
2729;DHT22;1372;47.956;7.830;2023-06-04T15:57:46;26.70;99.90
2729;DHT22;1372;47.956;7.830;2023-06-04T16:00:17;26.80;99.90
2729;DHT22;1372;47.956;7.830;2023-06-04T16:02:46;26.70;99.90
2729;DHT22;1372;47.956;7.830;2023-06-04T16:05:17;26.70;99.90
2729;DHT22;1372;47.956;7.830;2023-06-04T16:07:49;26.70;99.90
2729;DHT22;1372;47.956;7.830;2023-06-04T16:10:20;26.70;99.90
2729;DHT22;1372;47.956;7.830;2023-06-04T16:12:49;26.70;99.90
2729;DHT22;1372;47.956;7.830;2023-06-04T16:15:20;26.70;99.90
2729;DHT22;1372;47.956;7.830;2023-06-04T16:17:49;26.70;99.90
2729;DHT22;1372;47.956;7.830;2023-06-04T16:20:18;26.70;99.90
2729;DHT22;1372;47.956;7.830;2023-06-04T16:22:48;26.70;99.90
2729;DHT22;1372;47.956;7.830;2023-06-04T16:25:21;26.70;99.90